Seoul, South Korea

6:44 AM KST on March 03, 2015 (GMT +0900)
Incheon International | Change Station
CLOSE
Current Station
Airport
Location: Incheon,
Elevation: 23 ft
Nearby Weather Stations

Elev 23 ft 37.47 °N, 126.45 °E | Updated 14 minutes ago

Light Rain
Light Rain
37 °F
Feels Like 31 °F
N
9
Wind Variable Wind from South

Today
High -- | Low -- °F
--% Chance of Precip.
Yesterday
High -- | Low -- °F
Precip. -- in
7:01 AM 6:27 PM
Waxing Gibbous, 93% visible
Pressure 29.95 in
Visibility 3.7 miles
Clouds Few 1500 ft
Mostly Cloudy 2500 ft
Overcast 8000 ft
Windchill 31 °F
Dew Point 32 °F
Humidity 81%
Rainfall 0.00 in
Snow Depth Not available.
UV 0 out of 12
Pollen Not available.
Air Quality Not available.
Flu Activity Not available.
METAR RKSI 022130Z 19008KT 6000 -RA FEW015 BKN025 OVC080 03/M00 Q1014 NOSIG

More Conditions Fewer Conditions

Pressure 29.95 in
Visibility 3.7 miles
Clouds Few 1500 ft
Mostly Cloudy 2500 ft
Overcast 8000 ft
Windchill 31 °F
Dew Point 32 °F
Humidity 81%
Rainfall 0.00 in
Snow Depth Not available.
UV 0 out of 12
Pollen Not available.
Air Quality Not available.
Flu Activity Not available.
METAR RKSI 022130Z 19008KT 6000 -RA FEW015 BKN025 OVC080 03/M00 Q1014 NOSIG

More Conditions Fewer Conditions

10-Day Weather Forecast

Almanac

Astronomy

Mar. 03, 2015 Rise Set
Actual Time
Civil Twilight
Nautical Twilight
Astronomical Twilight
Moon
Length of Visible Light
Length of Day
Tomorrow will be .
, % of the Moon is Illuminated

Today's Extremes

Country Highs Country Lows

Community

WunderPhotos

Upload Photos

1,801,965 photos uploaded!

WunderBlogs® & News

Nearby

Air Quality

  Air Quality AQ Index Pollutant
Not available.

Snow Depth

Station Depth Elevation

Earthquake Activity

City Distance Mag. Time & Date
Minimum magnitude displayed is 2.5.

Coastal Water Temperatures

Place Temperature

Nearby Weather Stations